This is the latest recevied weather packets stored in our database for station/object MM9SQL. If no packets are shown the sender has not sent any weather packets the latest 10 day(s).
| Time | Temp. | Humidity | Pressure | Rain* | Wind** | Luminosity | Snow |
|---|---|---|---|---|---|---|---|
| 1777926306 | 8.33° C | 89% | 1013.8 hPa | 0.76 mm | - | - | - |
| 1777924818 | 8.89° C | 88% | 1013.6 hPa | 0.51 mm | - | - | - |
| 1777924506 | 8.89° C | 88% | 1013.6 hPa | 0.51 mm | - | - | - |
| 1777924203 | 8.89° C | 87% | 1013.6 hPa | 0.25 mm | - | - | - |
| 1777921506 | 9.44° C | 85% | 1013.4 hPa | 0.76 mm | - | - | - |
| 1777921214 | 9.44° C | 84% | 1013.4 hPa | 0.76 mm | - | - | - |
| 1777916406 | 11.67° C | 73% | 1013 hPa | 0 mm | - | - | - |
| 1777916107 | 12.22° C | 73% | 1013 hPa | 0 mm | - | - | - |
| 1777915508 | 11.67° C | 72% | 1013 hPa | 0 mm | - | - | - |
| 1777915210 | 12.22° C | 67% | 1013 hPa | 0 mm | - | - | - |
| 1777914924 | 12.22° C | 67% | 1013 hPa | 0 mm | - | - | - |
| 1777913406 | 12.78° C | 67% | 1012.7 hPa | 0 mm | - | - | - |
| 1777911910 | 13.89° C | 62% | 1012.8 hPa | 0 mm | - | - | - |
| 1777911607 | 13.33° C | 64% | 1012.8 hPa | 0 mm | - | - | - |
| 1777908902 | 15° C | 59% | 1012.7 hPa | 0 mm | - | - | - |
| 1777908602 | 14.44° C | 57% | 1012.7 hPa | 0 mm | - | - | - |
| 1777908302 | 15° C | 58% | 1012.8 hPa | 0 mm | - | - | - |
| 1777908002 | 14.44° C | 63% | 1012.8 hPa | 0 mm | - | - | - |
| 1777906503 | 14.44° C | 60% | 1012.8 hPa | 0 mm | - | - | - |
| 1777905602 | 14.44° C | 59% | 1012.7 hPa | 0 mm | - | - | - |
| 1777902906 | 13.33° C | 57% | 1013.1 hPa | 0 mm | - | - | - |
| 1777901104 | 13.33° C | 55% | 1012.9 hPa | 0 mm | - | - | - |
| 1777899906 | 13.89° C | 53% | 1012.8 hPa | 0 mm | - | - | - |
| 1777898402 | 13.89° C | 53% | 1012.7 hPa | 0 mm | - | - | - |
| 1777897806 | 14.44° C | 53% | 1012.5 hPa | 0 mm | - | - | - |
* Rain latest hour (hover to see other rain measurements)
** Current wind speed in m/s (hover to see current wind gust speed)